createdAt,value
2018-06-13T00:00:44.512Z,2.03
2018-06-13T00:03:13.008Z,2.50
2018-06-13T00:05:41.423Z,2.27
2018-06-13T00:08:10.166Z,2.37
2018-06-13T00:10:38.586Z,3.50
2018-06-13T00:13:06.904Z,2.33
2018-06-13T00:15:35.426Z,2.97
2018-06-13T00:18:13.526Z,2.93
2018-06-13T00:20:54.605Z,3.60
2018-06-13T00:23:22.993Z,2.10
2018-06-13T00:25:51.499Z,2.30
2018-06-13T00:28:19.905Z,2.30
2018-06-13T00:30:48.317Z,2.57
2018-06-13T00:33:17.861Z,2.50
2018-06-13T00:35:46.334Z,2.67
2018-06-13T00:38:14.789Z,3.33
2018-06-13T00:40:43.300Z,2.80
2018-06-13T00:43:11.784Z,2.53
2018-06-13T00:45:40.366Z,2.70
2018-06-13T00:48:08.831Z,2.20
2018-06-13T00:51:08.716Z,3.63
2018-06-13T00:53:37.128Z,3.03
2018-06-13T00:56:11.003Z,3.23
2018-06-13T00:58:39.497Z,2.73
2018-06-13T01:01:07.838Z,2.33
2018-06-13T01:03:36.212Z,2.83
2018-06-13T01:06:04.555Z,2.90
2018-06-13T01:08:32.755Z,2.40
2018-06-13T01:11:01.088Z,3.27
2018-06-13T01:13:30.837Z,2.10
2018-06-13T01:15:59.128Z,3.33
2018-06-13T01:18:27.412Z,3.37
2018-06-13T01:20:55.762Z,3.20
2018-06-13T01:23:23.940Z,3.07
2018-06-13T01:25:52.235Z,2.63
2018-06-13T01:28:20.564Z,2.73
2018-06-13T01:30:48.930Z,3.00
2018-06-13T01:33:17.274Z,3.40
2018-06-13T01:35:45.620Z,3.57
2018-06-13T01:38:13.950Z,3.93
2018-06-13T01:40:43.156Z,3.33
2018-06-13T01:43:11.543Z,3.40
2018-06-13T01:45:39.912Z,3.27
2018-06-13T01:48:08.252Z,3.33
2018-06-13T01:50:36.478Z,3.63
2018-06-13T01:53:04.812Z,2.30
2018-06-13T01:55:33.038Z,2.77
2018-06-13T01:58:01.359Z,4.40
2018-06-13T02:00:29.730Z,3.93
2018-06-13T02:02:58.163Z,3.30
2018-06-13T02:05:26.543Z,3.67
2018-06-13T02:07:54.825Z,2.87
2018-06-13T02:10:23.945Z,2.97
2018-06-13T02:12:52.231Z,2.20
2018-06-13T02:15:20.565Z,3.20
2018-06-13T02:17:48.815Z,3.20
2018-06-13T02:20:17.126Z,3.63
2018-06-13T02:22:45.495Z,2.70
2018-06-13T02:25:13.834Z,2.97
2018-06-13T02:27:42.210Z,3.90
2018-06-13T02:30:10.559Z,2.63
2018-06-13T02:32:41.060Z,3.83
2018-06-13T02:35:09.495Z,2.27
2018-06-13T02:37:37.820Z,3.20
2018-06-13T02:40:06.217Z,2.60
2018-06-13T02:42:34.581Z,3.80
2018-06-13T02:45:02.781Z,5.73
2018-06-13T02:47:31.105Z,2.90
2018-06-13T02:49:59.453Z,3.67
2018-06-13T02:52:28.669Z,3.80
2018-06-13T02:54:56.931Z,2.93
2018-06-13T02:57:25.338Z,2.90
2018-06-13T02:59:53.682Z,3.87
2018-06-13T03:02:21.986Z,4.80
2018-06-13T03:04:50.361Z,5.07
2018-06-13T03:07:18.754Z,3.77
2018-06-13T03:09:48.035Z,3.70
2018-06-13T03:12:16.395Z,3.90
2018-06-13T03:14:44.711Z,3.40
2018-06-13T03:17:12.970Z,4.93
2018-06-13T03:19:41.354Z,4.10
2018-06-13T03:22:09.738Z,3.70
2018-06-13T03:24:38.105Z,4.43
2018-06-13T03:27:06.526Z,3.40
2018-06-13T03:29:34.852Z,7.20
2018-06-13T03:32:03.051Z,3.57
2018-06-13T03:34:31.446Z,4.57
2018-06-13T03:36:59.842Z,4.30
2018-06-13T03:39:28.172Z,6.13
2018-06-13T03:41:56.497Z,3.57
2018-06-13T03:44:24.836Z,3.87
2018-06-13T03:46:53.219Z,4.73
2018-06-13T03:49:21.804Z,3.30
2018-06-13T03:51:50.168Z,5.47
2018-06-13T03:54:18.426Z,3.70
2018-06-13T03:56:46.719Z,3.63
2018-06-13T03:59:14.950Z,3.03
2018-06-13T04:01:43.327Z,5.10
2018-06-13T04:04:11.636Z,4.50
2018-06-13T04:06:39.971Z,5.07
2018-06-13T04:09:08.326Z,5.03
2018-06-13T04:11:36.635Z,4.77
2018-06-13T04:14:04.845Z,3.87
2018-06-13T04:16:33.037Z,3.63
2018-06-13T04:19:01.269Z,4.37
2018-06-13T04:21:29.653Z,3.20
2018-06-13T04:23:57.920Z,4.73
2018-06-13T04:26:26.304Z,4.53
2018-06-13T04:28:54.484Z,3.87
2018-06-13T04:31:22.778Z,3.63
2018-06-13T04:33:51.164Z,4.30
2018-06-13T04:36:19.418Z,4.50
2018-06-13T04:38:47.790Z,3.70
2018-06-13T04:41:16.114Z,2.83
2018-06-13T04:43:44.469Z,3.10
2018-06-13T04:46:12.920Z,2.90
2018-06-13T04:48:41.250Z,2.37
2018-06-13T04:51:09.494Z,5.30
2018-06-13T04:53:37.838Z,2.83
2018-06-13T04:56:06.226Z,2.27
2018-06-13T04:58:34.569Z,2.50
2018-06-13T05:01:02.849Z,3.67
2018-06-13T05:03:31.206Z,3.50
2018-06-13T05:05:59.574Z,2.47
2018-06-13T05:08:27.848Z,3.47
2018-06-13T05:10:56.187Z,3.10
2018-06-13T05:13:24.415Z,2.10
2018-06-13T05:15:52.783Z,3.70
2018-06-13T05:18:21.137Z,3.70
2018-06-13T05:20:49.436Z,3.03
2018-06-13T05:23:17.793Z,2.33
2018-06-13T05:25:46.191Z,2.60
2018-06-13T05:28:14.547Z,2.90
2018-06-13T05:30:42.991Z,3.03
2018-06-13T05:33:11.372Z,3.57
2018-06-13T05:35:39.753Z,3.63
2018-06-13T05:38:08.177Z,3.40
2018-06-13T05:40:36.544Z,3.83
2018-06-13T05:43:05.115Z,3.20
2018-06-13T05:45:33.347Z,3.17
2018-06-13T05:48:01.761Z,3.67
2018-06-13T05:50:29.968Z,4.37
2018-06-13T05:52:58.323Z,2.60
2018-06-13T05:55:26.702Z,3.43
2018-06-13T05:57:55.030Z,2.70
2018-06-13T06:00:23.433Z,4.57
2018-06-13T06:02:51.798Z,3.57
2018-06-13T06:05:20.053Z,4.37
2018-06-13T06:07:48.435Z,3.23
2018-06-13T06:10:16.720Z,4.07
2018-06-13T06:12:44.980Z,3.97
2018-06-13T06:15:13.341Z,3.10
2018-06-13T06:17:41.667Z,3.27
2018-06-13T06:20:09.892Z,4.07
2018-06-13T06:22:38.271Z,2.33
2018-06-13T06:25:06.794Z,2.57
2018-06-13T06:27:35.100Z,3.03
2018-06-13T06:30:03.435Z,3.07
2018-06-13T06:32:31.802Z,3.03
2018-06-13T06:35:01.101Z,2.83
2018-06-13T06:37:29.406Z,3.20
2018-06-13T06:39:57.715Z,2.60
2018-06-13T06:42:26.050Z,2.37
2018-06-13T06:44:55.377Z,2.93
2018-06-13T06:47:23.619Z,3.30
2018-06-13T06:49:51.913Z,3.77
2018-06-13T06:52:20.223Z,3.27
2018-06-13T06:54:49.597Z,2.40
2018-06-13T06:57:17.967Z,2.43
2018-06-13T06:59:46.321Z,2.43
2018-06-13T07:02:14.632Z,2.70
2018-06-13T07:04:42.958Z,2.83
2018-06-13T07:07:12.352Z,3.00
2018-06-13T07:09:40.735Z,2.30
2018-06-13T07:12:09.029Z,2.30
2018-06-13T07:14:37.450Z,3.07
2018-06-13T07:17:05.770Z,2.67
2018-06-13T07:19:34.044Z,1.93
2018-06-13T07:22:02.360Z,2.30
2018-06-13T07:24:30.646Z,2.13
2018-06-13T07:26:58.962Z,2.83
2018-06-13T07:29:27.324Z,1.73
2018-06-13T07:31:55.551Z,2.67
2018-06-13T07:34:23.829Z,2.37
2018-06-13T07:36:52.177Z,1.80
2018-06-13T07:39:20.409Z,2.50
2018-06-13T07:41:48.682Z,1.90
2018-06-13T07:44:16.940Z,2.00
2018-06-13T07:46:45.238Z,2.30
2018-06-13T07:49:13.601Z,3.43
2018-06-13T07:51:41.910Z,2.40
2018-06-13T07:54:10.265Z,1.87
2018-06-13T07:56:38.567Z,2.20
2018-06-13T07:59:06.851Z,2.73
2018-06-13T08:01:35.160Z,2.73
2018-06-13T08:04:03.517Z,2.27
2018-06-13T08:06:31.819Z,2.13
2018-06-13T08:09:00.112Z,3.20
2018-06-13T08:11:28.369Z,2.80
2018-06-13T08:13:56.642Z,4.87
2018-06-13T08:16:24.967Z,2.37
2018-06-13T08:18:53.519Z,2.23
2018-06-13T08:21:21.798Z,2.00
2018-06-13T08:23:50.160Z,2.13
2018-06-13T08:26:18.546Z,2.50
2018-06-13T08:28:46.864Z,2.50
2018-06-13T08:31:15.308Z,2.53
2018-06-13T08:33:43.749Z,2.63
2018-06-13T08:36:13.056Z,2.63
2018-06-13T08:38:41.432Z,2.57
2018-06-13T08:41:09.692Z,2.60
2018-06-13T08:43:38.031Z,2.47
2018-06-13T08:46:06.448Z,2.27
2018-06-13T08:48:34.781Z,2.70
2018-06-13T08:51:03.091Z,1.70
2018-06-13T08:53:31.373Z,2.37
2018-06-13T08:55:59.790Z,2.13
2018-06-13T08:58:28.034Z,1.97
2018-06-13T09:00:56.354Z,2.03
2018-06-13T09:03:24.699Z,2.20
2018-06-13T09:05:53.012Z,3.17
2018-06-13T09:08:21.301Z,2.10
2018-06-13T09:10:49.597Z,2.40
2018-06-13T09:13:17.831Z,2.10
2018-06-13T09:15:47.292Z,3.20
2018-06-13T09:18:15.688Z,2.73
2018-06-13T09:20:44.144Z,2.20
2018-06-13T09:23:12.494Z,2.03
2018-06-13T09:25:42.979Z,1.83
2018-06-13T09:28:11.244Z,1.80
2018-06-13T09:30:39.649Z,2.80
2018-06-13T09:33:07.944Z,2.10
2018-06-13T09:35:41.744Z,2.07
2018-06-13T09:38:10.067Z,2.57
2018-06-13T09:40:38.324Z,3.00
2018-06-13T09:43:06.662Z,3.57
2018-06-13T09:46:03.270Z,3.03
2018-06-13T09:48:20.939Z,2.00
2018-06-13T09:50:49.315Z,2.27
2018-06-13T09:53:17.676Z,1.63
2018-06-13T09:55:53.500Z,2.50
2018-06-13T09:58:21.916Z,2.03
2018-06-13T10:00:55.667Z,2.30
2018-06-13T10:03:24.000Z,2.53
2018-06-13T10:05:52.245Z,1.63
2018-06-13T10:08:20.535Z,1.80
2018-06-13T10:10:48.769Z,2.07
2018-06-13T10:13:17.007Z,2.43
2018-06-13T10:15:48.238Z,3.00
2018-06-13T10:18:16.512Z,3.07
2018-06-13T10:20:44.807Z,3.37
2018-06-13T10:23:13.239Z,2.40
2018-06-13T10:25:42.555Z,2.97
2018-06-13T10:28:10.858Z,2.40
2018-06-13T10:30:39.163Z,2.37
2018-06-13T10:33:07.511Z,2.20
2018-06-13T10:35:41.285Z,2.27
2018-06-13T10:38:12.950Z,2.00
2018-06-13T10:40:41.169Z,1.90
2018-06-13T10:43:09.478Z,2.63
2018-06-13T10:45:37.817Z,2.40
2018-06-13T10:48:15.102Z,2.60
2018-06-13T10:50:43.393Z,2.00
2018-06-13T10:53:11.846Z,1.97
2018-06-13T10:55:40.125Z,1.90
2018-06-13T10:58:10.457Z,3.57
2018-06-13T11:00:38.731Z,2.93
2018-06-13T11:03:07.095Z,2.57
2018-06-13T11:05:35.433Z,1.93
2018-06-13T11:08:04.862Z,2.13
2018-06-13T11:10:33.147Z,2.10
2018-06-13T11:13:01.507Z,1.73
2018-06-13T11:15:29.789Z,2.03
2018-06-13T11:18:00.252Z,2.07
2018-06-13T11:20:28.559Z,2.60
2018-06-13T11:22:58.524Z,1.90
2018-06-13T11:25:26.775Z,2.20
2018-06-13T11:27:55.201Z,2.33
2018-06-13T11:30:23.476Z,2.40
2018-06-13T11:32:51.817Z,2.40
2018-06-13T11:35:20.154Z,2.60
2018-06-13T11:37:51.977Z,3.07
2018-06-13T11:40:20.242Z,2.40
2018-06-13T11:42:48.601Z,2.70
2018-06-13T11:45:16.837Z,3.73
2018-06-13T11:47:48.237Z,3.10
2018-06-13T11:50:16.541Z,2.47
2018-06-13T11:52:44.835Z,2.00
2018-06-13T11:55:13.152Z,2.73
2018-06-13T11:57:41.612Z,2.17
2018-06-13T12:00:09.895Z,2.97
2018-06-13T12:02:38.218Z,2.50
2018-06-13T12:05:06.485Z,2.27
2018-06-13T12:07:34.856Z,2.43
2018-06-13T12:10:03.188Z,2.43
2018-06-13T12:12:31.525Z,2.60
2018-06-13T12:14:59.783Z,2.50
2018-06-13T12:17:28.018Z,2.50
2018-06-13T12:19:57.332Z,2.37
2018-06-13T12:22:25.604Z,4.27
2018-06-13T12:24:53.916Z,2.77
2018-06-13T12:27:22.226Z,2.60
2018-06-13T12:29:50.698Z,3.13
2018-06-13T12:32:19.011Z,2.17
2018-06-13T12:34:47.318Z,2.60
2018-06-13T12:37:15.642Z,2.97
2018-06-13T12:39:43.938Z,2.23
2018-06-13T12:42:12.257Z,3.40
2018-06-13T12:44:40.583Z,3.17
2018-06-13T12:47:09.029Z,2.60
2018-06-13T12:49:58.326Z,2.07
2018-06-13T12:52:26.589Z,3.60
2018-06-13T12:54:54.863Z,2.40
2018-06-13T12:57:23.158Z,3.20
2018-06-13T12:59:51.734Z,2.43
2018-06-13T13:02:19.976Z,2.43
2018-06-13T13:04:48.280Z,2.73
2018-06-13T13:07:16.608Z,3.20
2018-06-13T13:09:44.951Z,2.87
2018-06-13T13:12:13.326Z,2.50
2018-06-13T13:14:43.061Z,2.87
2018-06-13T13:17:11.311Z,2.83
2018-06-13T13:19:39.749Z,2.40
2018-06-13T13:22:08.039Z,2.80
2018-06-13T13:24:36.351Z,3.00
2018-06-13T13:27:04.711Z,2.37
2018-06-13T13:29:41.123Z,2.80
2018-06-13T13:32:09.457Z,2.37
2018-06-13T13:34:37.810Z,2.90
2018-06-13T13:37:06.109Z,2.50
2018-06-13T13:39:36.571Z,2.30
2018-06-13T13:42:04.915Z,3.27
2018-06-13T13:44:33.263Z,2.60
2018-06-13T13:47:01.687Z,2.40
2018-06-13T13:49:37.918Z,3.17
2018-06-13T13:52:06.259Z,3.20
2018-06-13T13:54:34.555Z,2.83
2018-06-13T13:57:02.831Z,3.10
2018-06-13T13:59:34.804Z,3.80
2018-06-13T14:02:03.262Z,2.07
2018-06-13T14:04:31.572Z,2.13
2018-06-13T14:07:00.038Z,3.30
2018-06-13T14:09:29.439Z,3.00
2018-06-13T14:11:57.806Z,3.17
2018-06-13T14:14:26.121Z,2.70
2018-06-13T14:16:54.381Z,2.13
2018-06-13T14:19:22.666Z,3.10
2018-06-13T14:21:50.875Z,2.07
2018-06-13T14:24:19.119Z,2.70
2018-06-13T14:26:47.353Z,2.37
2018-06-13T14:29:15.626Z,3.07
2018-06-13T14:31:45.028Z,2.97
2018-06-13T14:34:13.249Z,3.10
2018-06-13T14:36:41.482Z,4.03
2018-06-13T14:39:10.920Z,3.30
2018-06-13T14:41:40.373Z,2.87
2018-06-13T14:44:08.758Z,3.07
2018-06-13T14:46:37.120Z,2.30
2018-06-13T14:49:05.527Z,2.27
2018-06-13T14:52:00.471Z,3.20
2018-06-13T14:54:28.842Z,3.70
2018-06-13T14:56:57.215Z,2.27
2018-06-13T14:59:25.504Z,2.00
2018-06-13T15:01:59.476Z,2.40
2018-06-13T15:04:33.615Z,3.03
2018-06-13T15:07:02.869Z,3.03
2018-06-13T15:09:31.186Z,3.50
2018-06-13T15:11:59.490Z,2.70
2018-06-13T15:14:27.863Z,3.07
2018-06-13T15:16:56.554Z,2.40
2018-06-13T15:19:24.949Z,3.30
2018-06-13T15:21:53.601Z,3.63
2018-06-13T15:24:21.917Z,2.77
2018-06-13T15:26:50.299Z,2.50
2018-06-13T15:29:18.590Z,2.17
2018-06-13T15:31:46.851Z,2.03
2018-06-13T15:34:15.300Z,2.50
2018-06-13T15:36:43.694Z,2.37
2018-06-13T15:39:13.916Z,2.57
2018-06-13T15:41:42.985Z,2.50
2018-06-13T15:44:11.283Z,2.10
2018-06-13T15:46:39.674Z,1.80
2018-06-13T15:49:08.879Z,3.33
2018-06-13T15:51:37.328Z,2.93
2018-06-13T15:54:05.746Z,2.30
2018-06-13T15:56:35.064Z,2.40
2018-06-13T15:59:03.436Z,2.30
2018-06-13T16:01:32.488Z,2.67
2018-06-13T16:04:00.833Z,1.90
2018-06-13T16:06:29.183Z,2.40
2018-06-13T16:08:57.538Z,2.17
2018-06-13T16:11:25.898Z,2.97
2018-06-13T16:13:54.247Z,3.13
2018-06-13T16:16:22.484Z,2.47
2018-06-13T16:18:51.207Z,1.87
2018-06-13T16:21:19.749Z,2.30
2018-06-13T16:23:48.119Z,2.17
2018-06-13T16:26:16.492Z,2.53
2018-06-13T16:28:44.841Z,3.40
2018-06-13T16:31:13.283Z,2.40
2018-06-13T16:33:41.522Z,2.17
2018-06-13T16:36:10.719Z,2.40
2018-06-13T16:38:39.163Z,3.13
2018-06-13T16:41:07.624Z,2.43
2018-06-13T16:43:35.981Z,2.60
2018-06-13T16:46:04.278Z,2.20
2018-06-13T16:48:32.671Z,2.03
2018-06-13T16:51:06.429Z,1.70
2018-06-13T16:53:41.154Z,1.80
2018-06-13T16:56:09.575Z,2.90
2018-06-13T16:58:37.818Z,2.43
2018-06-13T17:01:06.185Z,2.80
2018-06-13T17:03:34.547Z,2.57
2018-06-13T17:06:03.742Z,2.57
2018-06-13T17:08:33.031Z,2.77
2018-06-13T17:11:01.417Z,2.50
2018-06-13T17:13:29.996Z,2.10
2018-06-13T17:15:58.399Z,2.00
2018-06-13T17:18:26.743Z,1.90
2018-06-13T17:20:55.142Z,2.07
2018-06-13T17:23:23.496Z,1.90
2018-06-13T17:25:52.027Z,1.73
2018-06-13T17:28:20.569Z,2.10
2018-06-13T17:30:48.945Z,2.30
2018-06-13T17:33:17.282Z,2.80
2018-06-13T17:35:45.637Z,2.70
2018-06-13T17:38:14.059Z,2.80
2018-06-13T17:40:42.468Z,1.97
2018-06-13T17:43:10.914Z,3.50
2018-06-13T17:45:39.337Z,2.70
2018-06-13T17:48:08.673Z,2.43
2018-06-13T17:50:36.919Z,3.50
2018-06-13T17:53:05.169Z,2.77
2018-06-13T17:55:33.625Z,2.50
2018-06-13T17:58:02.564Z,3.03
2018-06-13T18:00:31.859Z,2.20
2018-06-13T18:03:00.679Z,2.90
2018-06-13T18:05:29.061Z,2.53
2018-06-13T18:07:57.445Z,2.17
2018-06-13T18:10:25.657Z,2.63
2018-06-13T18:12:54.005Z,2.50
2018-06-13T18:15:22.407Z,2.40
2018-06-13T18:17:50.804Z,1.70
2018-06-13T18:20:19.094Z,2.43
2018-06-13T18:22:47.305Z,2.80
2018-06-13T18:25:15.513Z,3.10
2018-06-13T18:27:43.961Z,3.50
2018-06-13T18:30:12.335Z,2.70
2018-06-13T18:32:40.682Z,2.50
2018-06-13T18:35:09.055Z,2.37
2018-06-13T18:37:37.388Z,3.40
2018-06-13T18:40:05.688Z,3.13
2018-06-13T18:42:34.112Z,2.20
2018-06-13T18:45:02.440Z,2.70
2018-06-13T18:47:31.595Z,3.00
2018-06-13T18:49:59.847Z,3.17
2018-06-13T18:52:28.183Z,1.73
2018-06-13T18:54:56.599Z,2.30
2018-06-13T18:57:24.829Z,3.63
2018-06-13T18:59:53.074Z,2.00
2018-06-13T19:02:21.349Z,2.57
2018-06-13T19:04:49.654Z,2.90
2018-06-13T19:07:18.053Z,2.50
2018-06-13T19:09:46.382Z,2.47
2018-06-13T19:12:14.708Z,3.10
2018-06-13T19:14:43.106Z,3.87
2018-06-13T19:17:11.359Z,3.37
2018-06-13T19:19:39.804Z,2.30
2018-06-13T19:22:08.188Z,2.43
2018-06-13T19:24:36.550Z,1.87
2018-06-13T19:27:05.840Z,2.10
2018-06-13T19:29:34.175Z,2.50
2018-06-13T19:32:03.417Z,3.33
2018-06-13T19:34:31.831Z,2.33
2018-06-13T19:37:01.112Z,3.33
2018-06-13T19:39:29.494Z,2.97
2018-06-13T19:41:57.884Z,3.17
2018-06-13T19:44:26.428Z,2.50
2018-06-13T19:46:59.071Z,2.70
2018-06-13T19:49:27.462Z,2.80
2018-06-13T19:51:55.730Z,2.83
2018-06-13T19:54:29.419Z,2.50
2018-06-13T19:56:57.680Z,3.13
2018-06-13T19:59:26.026Z,2.30
2018-06-13T20:01:54.440Z,2.50
2018-06-13T20:04:28.364Z,2.63
2018-06-13T20:06:56.706Z,2.17
2018-06-13T20:09:24.945Z,3.33
2018-06-13T20:11:53.409Z,2.77
2018-06-13T20:14:27.122Z,4.23
2018-06-13T20:17:00.709Z,3.17
2018-06-13T20:19:34.622Z,2.40
2018-06-13T20:22:02.957Z,4.30
2018-06-13T20:24:31.296Z,4.30
2018-06-13T20:27:05.103Z,3.60
2018-06-13T20:29:38.903Z,3.30
2018-06-13T20:32:07.196Z,3.27
2018-06-13T20:34:35.539Z,4.50
2018-06-13T20:37:03.868Z,4.00
2018-06-13T20:39:32.082Z,3.63
2018-06-13T20:42:00.412Z,4.07
2018-06-13T20:44:28.674Z,4.47
2018-06-13T20:46:57.011Z,3.10
2018-06-13T20:49:25.233Z,4.07
2018-06-13T20:51:53.534Z,3.80
2018-06-13T20:54:21.906Z,5.13
2018-06-13T20:56:50.160Z,3.40
2018-06-13T20:59:18.476Z,3.83
2018-06-13T21:01:46.789Z,4.03
2018-06-13T21:04:15.044Z,3.10
2018-06-13T21:06:43.272Z,3.37
2018-06-13T21:09:11.619Z,3.10
2018-06-13T21:11:40.234Z,4.67
2018-06-13T21:14:08.564Z,3.80
2018-06-13T21:16:36.799Z,3.07
2018-06-13T21:19:05.127Z,2.83
2018-06-13T21:21:33.500Z,3.83
2018-06-13T21:24:01.835Z,2.80
2018-06-13T21:26:30.046Z,3.20
2018-06-13T21:28:58.261Z,3.87
2018-06-13T21:31:26.519Z,3.47
2018-06-13T21:33:54.837Z,2.87
2018-06-13T21:36:23.199Z,4.10
2018-06-13T21:38:51.491Z,5.20
2018-06-13T21:41:19.901Z,4.40
2018-06-13T21:43:48.126Z,3.30
2018-06-13T21:46:16.389Z,3.83
2018-06-13T21:48:44.629Z,3.20
2018-06-13T21:51:12.985Z,5.33
2018-06-13T21:53:41.258Z,2.93
2018-06-13T21:56:09.455Z,2.90
2018-06-13T21:58:38.516Z,3.10
2018-06-13T22:01:06.789Z,4.37
2018-06-13T22:03:35.047Z,3.23
2018-06-13T22:06:03.370Z,3.17
2018-06-13T22:08:31.620Z,2.97
2018-06-13T22:10:59.973Z,4.10
2018-06-13T22:13:28.434Z,4.07
2018-06-13T22:15:56.679Z,4.00
2018-06-13T22:18:24.989Z,4.80
2018-06-13T22:20:53.180Z,4.00
2018-06-13T22:23:21.403Z,4.50
2018-06-13T22:25:49.797Z,4.20
2018-06-13T22:28:18.108Z,4.40
2018-06-13T22:30:46.397Z,5.57
2018-06-13T22:33:14.734Z,5.23
2018-06-13T22:35:42.933Z,4.77
2018-06-13T22:38:11.264Z,3.90
2018-06-13T22:40:39.603Z,5.87
2018-06-13T22:43:08.005Z,5.27
2018-06-13T22:45:36.443Z,4.50
2018-06-13T22:48:06.282Z,4.20
2018-06-13T22:50:34.762Z,3.90
2018-06-13T22:53:03.045Z,5.90
2018-06-13T22:55:31.595Z,5.20
2018-06-13T22:58:00.027Z,4.40
2018-06-13T23:00:31.040Z,5.83
2018-06-13T23:02:59.374Z,6.47
2018-06-13T23:05:27.698Z,7.60
2018-06-13T23:07:56.252Z,5.73
2018-06-13T23:10:24.571Z,7.00
2018-06-13T23:12:53.051Z,4.13
2018-06-13T23:15:21.455Z,5.30
2018-06-13T23:17:50.158Z,4.80
2018-06-13T23:20:18.506Z,5.20
2018-06-13T23:22:46.773Z,5.23
2018-06-13T23:25:15.126Z,4.80
2018-06-13T23:27:43.441Z,6.50
2018-06-13T23:30:11.785Z,4.87
2018-06-13T23:32:40.039Z,4.83
2018-06-13T23:35:08.358Z,5.63
2018-06-13T23:37:36.744Z,5.53
2018-06-13T23:40:05.085Z,6.20
2018-06-13T23:42:33.392Z,4.63
2018-06-13T23:45:01.693Z,5.73
2018-06-13T23:47:30.025Z,6.23
2018-06-13T23:49:58.248Z,6.00
2018-06-13T23:52:26.489Z,4.63
2018-06-13T23:54:54.789Z,5.80
2018-06-13T23:57:23.160Z,4.90
2018-06-13T23:59:51.522Z,4.10
